^^
Saratoga-Weather Station Historical Data
Daily Summary for September 22, 2020 Units:  Both    English   Metric
Daily Weekly Monthly Yearly Custom
  High: Low: Average:
Temperature: 73.6 °F /  23.1 °C 48 °F /  8.9 °C 61.3 °F /  16.3 °C
Dew Point: 40.3 °F /  4.6 °C 34 °F /  1.1 °C 36.7 °F /  2.6 °C
Humidity: 62% 26% 41%
Wind Speed: 10.1mph /  16.3km/h - 2.4mph /  3.8km/h
Wind Gust: 15mph /  24.1km/h - -
Wind- - ESE
Pressure: 30 in /  1016.3 hPa 29.9 in /  1012.9 hPa -
Precipitation: 0 in /  0.0 mm    
Historical Graphs
 
 
Tabular Data for September 22, 2020
Time Temperature Dew Point Pressure Wind Wind Speed Wind Gust Humidity Rainfall Rate (Hourly) solar
00:01 59.5 °F /  15.3 °C 35.2 °F /  1.8 °C 29.9in /  1012.9hPa East 2mph /  3.2km/h 4mph /  6.4km/h 40% 0in /  0.0mm 0 W/m2
00:06 59.5 °F /  15.3 °C 36.5 °F /  2.5 °C 29.9in /  1012.9hPa Calm   7mph /  11.3km/h 42% 0in /  0.0mm 0 W/m2
00:11 59.2 °F /  15.1 °C 35.4 °F /  1.9 °C 29.9in /  1012.9hPa NNE 2.9mph /  4.7km/h 3mph /  4.8km/h 41% 0in /  0.0mm 0 W/m2
00:16 59.2 °F /  15.1 °C 35.4 °F /  1.9 °C 29.9in /  1012.9hPa ESE 2mph /  3.2km/h 7mph /  11.3km/h 41% 0in /  0.0mm 0 W/m2
00:21 59.2 °F /  15.1 °C 35.4 °F /  1.9 °C 29.9in /  1012.9hPa SE 2mph /  3.2km/h 6mph /  9.7km/h 41% 0in /  0.0mm 0 W/m2
00:26 59 °F /  15 °C 35.4 °F /  1.9 °C 29.9in /  1012.9hPa East 0.9mph /  1.4km/h 4mph /  6.4km/h 41% 0in /  0.0mm 0 W/m2
00:31 59.2 °F /  15.1 °C 35.4 °F /  1.9 °C 29.9in /  1012.9hPa ENE 0.9mph /  1.4km/h 4mph /  6.4km/h 41% 0in /  0.0mm 0 W/m2
00:36 59.2 °F /  15.1 °C 35.4 °F /  1.9 °C 29.9in /  1012.9hPa ESE 2.9mph /  4.7km/h 6mph /  9.7km/h 41% 0in /  0.0mm 0 W/m2
00:41 58.8 °F /  14.9 °C 35.2 °F /  1.8 °C 29.9in /  1012.9hPa NE 2.9mph /  4.7km/h 6mph /  9.7km/h 41% 0in /  0.0mm 0 W/m2
00:47 58.8 °F /  14.9 °C 35.2 °F /  1.8 °C 29.9in /  1012.9hPa NE 4.9mph /  7.9km/h 6mph /  9.7km/h 41% 0in /  0.0mm 0 W/m2
00:52 58.6 °F /  14.8 °C 35.1 °F /  1.7 °C 29.9in /  1012.9hPa East 2.9mph /  4.7km/h 4mph /  6.4km/h 41% 0in /  0.0mm 0 W/m2
00:57 58.6 °F /  14.8 °C 35.6 °F /  2 °C 29.9in /  1012.9hPa North 2mph /  3.2km/h 4mph /  6.4km/h 42% 0in /  0.0mm 0 W/m2
01:02 58.5 °F /  14.7 °C 35.4 °F /  1.9 °C 29.9in /  1013.2hPa East 2.9mph /  4.7km/h 4mph /  6.4km/h 42% 0in /  0.0mm 0 W/m2
01:07 58.3 °F /  14.6 °C 35.2 °F /  1.8 °C 29.9in /  1012.9hPa Calm   4mph /  6.4km/h 42% 0in /  0.0mm 0 W/m2
01:12 58.1 °F /  14.5 °C 35.8 °F /  2.1 °C 29.9in /  1013.2hPa ESE 2.9mph /  4.7km/h 3mph /  4.8km/h 43% 0in /  0.0mm 0 W/m2
01:17 57.7 °F /  14.3 °C 35.4 °F /  1.9 °C 29.9in /  1013.2hPa SE 2mph /  3.2km/h 8mph /  12.9km/h 43% 0in /  0.0mm 0 W/m2
01:22 57.7 °F /  14.3 °C 35.4 °F /  1.9 °C 29.9in /  1013.2hPa Calm   4mph /  6.4km/h 43% 0in /  0.0mm 0 W/m2
01:27 57.4 °F /  14.1 °C 36.7 °F /  2.6 °C 29.9in /  1013.2hPa East 0.9mph /  1.4km/h 6mph /  9.7km/h 46% 0in /  0.0mm 0 W/m2
01:32 57 °F /  13.9 °C 35.2 °F /  1.8 °C 29.9in /  1013.2hPa ENE 0.9mph /  1.4km/h 4mph /  6.4km/h 44% 0in /  0.0mm 0 W/m2
01:37 57 °F /  13.9 °C 35.2 °F /  1.8 °C 29.9in /  1013.2hPa NE 0.9mph /  1.4km/h 5mph /  8km/h 44% 0in /  0.0mm 0 W/m2
01:42 57 °F /  13.9 °C 36.5 °F /  2.5 °C 29.9in /  1013.2hPa ESE 0.9mph /  1.4km/h 2mph /  3.2km/h 46% 0in /  0.0mm 0 W/m2
01:47 56.8 °F /  13.8 °C 35.2 °F /  1.8 °C 29.9in /  1013.2hPa East 2.9mph /  4.7km/h 4mph /  6.4km/h 44% 0in /  0.0mm 0 W/m2
01:52 56.7 °F /  13.7 °C 35.1 °F /  1.7 °C 29.9in /  1013.2hPa ENE 2.9mph /  4.7km/h 3mph /  4.8km/h 44% 0in /  0.0mm 0 W/m2
01:57 56.7 °F /  13.7 °C 35.1 °F /  1.7 °C 29.9in /  1013.2hPa Calm   6mph /  9.7km/h 44% 0in /  0.0mm 0 W/m2
02:02 56.8 °F /  13.8 °C 35.2 °F /  1.8 °C 29.9in /  1012.9hPa SE 4.9mph /  7.9km/h 5mph /  8km/h 44% 0in /  0.0mm 0 W/m2
02:07 56.8 °F /  13.8 °C 35.2 °F /  1.8 °C 29.9in /  1012.9hPa East 2.9mph /  4.7km/h 3mph /  4.8km/h 44% 0in /  0.0mm 0 W/m2
02:12 56.8 °F /  13.8 °C 35.2 °F /  1.8 °C 29.9in /  1013.2hPa East 0.9mph /  1.4km/h 4mph /  6.4km/h 44% 0in /  0.0mm 0 W/m2
02:17 56.7 °F /  13.7 °C 35.1 °F /  1.7 °C 29.9in /  1012.9hPa East 2.9mph /  4.7km/h 4mph /  6.4km/h 44% 0in /  0.0mm 0 W/m2
02:22 56.5 °F /  13.6 °C 35.4 °F /  1.9 °C 29.9in /  1012.9hPa Calm   4mph /  6.4km/h 45% 0in /  0.0mm 0 W/m2
02:27 56.5 °F /  13.6 °C 35.4 °F /  1.9 °C 29.9in /  1012.9hPa East 2mph /  3.2km/h 4mph /  6.4km/h 45% 0in /  0.0mm 0 W/m2
02:32 56.5 °F /  13.6 °C 34.9 °F /  1.6 °C 29.9in /  1012.9hPa ESE 0.9mph /  1.4km/h 4mph /  6.4km/h 44% 0in /  0.0mm 0 W/m2
02:37 56.5 °F /  13.6 °C 35.4 °F /  1.9 °C 29.9in /  1012.9hPa ESE 2.9mph /  4.7km/h 3mph /  4.8km/h 45% 0in /  0.0mm 0 W/m2
02:42 56.1 °F /  13.4 °C 35.1 °F /  1.7 °C 29.9in /  1012.9hPa East 4mph /  6.4km/h 4mph /  6.4km/h 45% 0in /  0.0mm 0 W/m2
02:47 55.9 °F /  13.3 °C 35.4 °F /  1.9 °C 29.9in /  1013.2hPa ENE 0.9mph /  1.4km/h 1mph /  1.6km/h 46% 0in /  0.0mm 0 W/m2
02:52 55.6 °F /  13.1 °C 35.1 °F /  1.7 °C 29.9in /  1013.2hPa Calm   1mph /  1.6km/h 46% 0in /  0.0mm 0 W/m2
02:57 55.2 °F /  12.9 °C 35.4 °F /  1.9 °C 29.9in /  1013.2hPa Calm   1mph /  1.6km/h 47% 0in /  0.0mm 0 W/m2
03:02 54.9 °F /  12.7 °C 34.5 °F /  1.4 °C 29.9in /  1013.2hPa SE 2.9mph /  4.7km/h 3mph /  4.8km/h 46% 0in /  0.0mm 0 W/m2
03:07 55 °F /  12.8 °C 34.7 °F /  1.5 °C 29.9in /  1013.2hPa ESE 0.9mph /  1.4km/h 2mph /  3.2km/h 46% 0in /  0.0mm 0 W/m2
03:12 55.2 °F /  12.9 °C 34.9 °F /  1.6 °C 29.9in /  1013.2hPa NE 0.9mph /  1.4km/h 3mph /  4.8km/h 46% 0in /  0.0mm 0 W/m2
03:18 55.2 °F /  12.9 °C 34.9 °F /  1.6 °C 29.9in /  1013.2hPa SSE 0.9mph /  1.4km/h 2mph /  3.2km/h 46% 0in /  0.0mm 0 W/m2
03:23 55.2 °F /  12.9 °C 34.9 °F /  1.6 °C 29.9in /  1013.2hPa North 2.9mph /  4.7km/h 3mph /  4.8km/h 46% 0in /  0.0mm 0 W/m2
03:28 55.2 °F /  12.9 °C 34.2 °F /  1.2 °C 29.9in /  1013.2hPa ENE 0.9mph /  1.4km/h 2mph /  3.2km/h 45% 0in /  0.0mm 0 W/m2
03:33 55 °F /  12.8 °C 34.2 °F /  1.2 °C 29.9in /  1013.2hPa NE 2mph /  3.2km/h 3mph /  4.8km/h 45% 0in /  0.0mm 0 W/m2
03:38 55 °F /  12.8 °C 34.7 °F /  1.5 °C 29.9in /  1013.2hPa NNE 2mph /  3.2km/h 5mph /  8km/h 46% 0in /  0.0mm 0 W/m2
03:43 55 °F /  12.8 °C 34.7 °F /  1.5 °C 29.9in /  1013.2hPa Calm   2mph /  3.2km/h 46% 0in /  0.0mm 0 W/m2
03:48 54.9 °F /  12.7 °C 35.1 °F /  1.7 °C 29.9in /  1013.2hPa ENE 0.9mph /  1.4km/h 5mph /  8km/h 47% 0in /  0.0mm 0 W/m2
03:53 54.7 °F /  12.6 °C 34.9 °F /  1.6 °C 29.9in /  1013.5hPa NNW 0.9mph /  1.4km/h 2mph /  3.2km/h 47% 0in /  0.0mm 0 W/m2
03:58 54.3 °F /  12.4 °C 34.5 °F /  1.4 °C 29.9in /  1013.5hPa West 0.9mph /  1.4km/h 1mph /  1.6km/h 47% 0in /  0.0mm 0 W/m2
04:03 54.1 °F /  12.3 °C 34.3 °F /  1.3 °C 29.9in /  1013.5hPa West 0.9mph /  1.4km/h 5mph /  8km/h 47% 0in /  0.0mm 0 W/m2
04:08 54.1 °F /  12.3 °C 34.3 °F /  1.3 °C 29.9in /  1013.5hPa West 2mph /  3.2km/h 3mph /  4.8km/h 47% 0in /  0.0mm 0 W/m2
04:13 54 °F /  12.2 °C 34.2 °F /  1.2 °C 29.9in /  1013.5hPa NE 0.9mph /  1.4km/h 4mph /  6.4km/h 47% 0in /  0.0mm 0 W/m2
04:18 53.8 °F /  12.1 °C 34.5 °F /  1.4 °C 29.9in /  1013.5hPa ENE 2mph /  3.2km/h 5mph /  8km/h 48% 0in /  0.0mm 0 W/m2
04:24 53.8 °F /  12.1 °C 34.5 °F /  1.4 °C 29.9in /  1013.5hPa WNW 0.9mph /  1.4km/h 1mph /  1.6km/h 48% 0in /  0.0mm 0 W/m2
04:29 53.4 °F /  11.9 °C 34.7 °F /  1.5 °C 29.9in /  1013.5hPa SE 2mph /  3.2km/h 5mph /  8km/h 49% 0in /  0.0mm 0 W/m2
04:34 53.2 °F /  11.8 °C 34.5 °F /  1.4 °C 29.9in /  1013.5hPa NW 0.9mph /  1.4km/h 3mph /  4.8km/h 49% 0in /  0.0mm 0 W/m2
04:39 53.2 °F /  11.8 °C 34 °F /  1.1 °C 29.9in /  1013.5hPa Calm   3mph /  4.8km/h 48% 0in /  0.0mm 0 W/m2
04:44 53.2 °F /  11.8 °C 34.5 °F /  1.4 °C 29.9in /  1013.5hPa NNW 0.9mph /  1.4km/h 1mph /  1.6km/h 49% 0in /  0.0mm 0 W/m2
04:49 53.1 °F /  11.7 °C 34.9 °F /  1.6 °C 29.9in /  1013.5hPa WNW 0.9mph /  1.4km/h 1mph /  1.6km/h 50% 0in /  0.0mm 0 W/m2
04:54 53.1 °F /  11.7 °C 34.9 °F /  1.6 °C 29.9in /  1013.2hPa Calm   2mph /  3.2km/h 50% 0in /  0.0mm 0 W/m2
04:59 52.9 °F /  11.6 °C 34.7 °F /  1.5 °C 29.9in /  1013.2hPa Calm   2mph /  3.2km/h 50% 0in /  0.0mm 0 W/m2
05:04 52.7 °F /  11.5 °C 34.5 °F /  1.4 °C 29.9in /  1013.2hPa WNW 2mph /  3.2km/h 2mph /  3.2km/h 50% 0in /  0.0mm 0 W/m2
05:09 52.5 °F /  11.4 °C 34.3 °F /  1.3 °C 29.9in /  1013.2hPa NNE 0.9mph /  1.4km/h 1mph /  1.6km/h 50% 0in /  0.0mm 0 W/m2
05:14 52.5 °F /  11.4 °C 34.3 °F /  1.3 °C 29.9in /  1013.2hPa Calm   4mph /  6.4km/h 50% 0in /  0.0mm 0 W/m2
05:19 52.3 °F /  11.3 °C 35.2 °F /  1.8 °C 29.9in /  1013.2hPa NNW 2.9mph /  4.7km/h 6mph /  9.7km/h 52% 0in /  0.0mm 0 W/m2
05:24 52.2 °F /  11.2 °C 35.1 °F /  1.7 °C 29.9in /  1013.5hPa Calm   4mph /  6.4km/h 52% 0in /  0.0mm 0 W/m2
05:29 52 °F /  11.1 °C 34.3 °F /  1.3 °C 29.9in /  1013.5hPa Calm   3mph /  4.8km/h 51% 0in /  0.0mm 0 W/m2
05:34 52 °F /  11.1 °C 34.3 °F /  1.3 °C 29.9in /  1013.5hPa SSE 0.9mph /  1.4km/h 5mph /  8km/h 51% 0in /  0.0mm 0 W/m2
05:39 51.6 °F /  10.9 °C 34.5 °F /  1.4 °C 29.9in /  1013.5hPa SE 2.9mph /  4.7km/h 3mph /  4.8km/h 52% 0in /  0.0mm 0 W/m2
05:44 51.6 °F /  10.9 °C 35.1 °F /  1.7 °C 29.9in /  1013.2hPa Calm   4mph /  6.4km/h 53% 0in /  0.0mm 0 W/m2
05:49 51.4 °F /  10.8 °C 34.9 °F /  1.6 °C 29.9in /  1013.5hPa East 2mph /  3.2km/h 2mph /  3.2km/h 53% 0in /  0.0mm 0 W/m2
05:54 51.3 °F /  10.7 °C 34.2 °F /  1.2 °C 29.9in /  1013.2hPa Calm   3mph /  4.8km/h 52% 0in /  0.0mm 0 W/m2
05:59 51.1 °F /  10.6 °C 34.5 °F /  1.4 °C 29.9in /  1013.5hPa Calm   2mph /  3.2km/h 53% 0in /  0.0mm 0 W/m2
06:04 50.7 °F /  10.4 °C 34.7 °F /  1.5 °C 29.9in /  1013.5hPa WNW 2mph /  3.2km/h 4mph /  6.4km/h 54% 0in /  0.0mm 0 W/m2
06:10 50.5 °F /  10.3 °C 35.1 °F /  1.7 °C 29.9in /  1013.5hPa SSW 0.9mph /  1.4km/h 2mph /  3.2km/h 55% 0in /  0.0mm 0 W/m2
06:15 50.2 °F /  10.1 °C 34.7 °F /  1.5 °C 29.9in /  1013.5hPa Calm   4mph /  6.4km/h 55% 0in /  0.0mm 0 W/m2
06:20 49.8 °F /  9.9 °C 35.2 °F /  1.8 °C 29.9in /  1013.5hPa Calm   1mph /  1.6km/h 57% 0in /  0.0mm 0 W/m2
06:25 49.6 °F /  9.8 °C 35.4 °F /  1.9 °C 29.9in /  1013.5hPa SE 0.9mph /  1.4km/h 1mph /  1.6km/h 58% 0in /  0.0mm 0 W/m2
06:30 49.3 °F /  9.6 °C 35.1 °F /  1.7 °C 29.9in /  1013.5hPa East 2mph /  3.2km/h 2mph /  3.2km/h 58% 0in /  0.0mm 5 W/m2
06:35 49.1 °F /  9.5 °C 35.4 °F /  1.9 °C 29.9in /  1013.5hPa NW 2mph /  3.2km/h 2mph /  3.2km/h 59% 0in /  0.0mm 7 W/m2
06:40 48.9 °F /  9.4 °C 35.6 °F /  2 °C 29.9in /  1013.5hPa Calm     60% 0in /  0.0mm 9 W/m2
06:45 48.6 °F /  9.2 °C 35.8 °F /  2.1 °C 29.9in /  1013.5hPa WSW 2mph /  3.2km/h 2mph /  3.2km/h 61% 0in /  0.0mm 12 W/m2
06:50 48.4 °F /  9.1 °C 35.6 °F /  2 °C 29.9in /  1013.5hPa Calm   2mph /  3.2km/h 61% 0in /  0.0mm 14 W/m2
06:55 48 °F /  8.9 °C 35.2 °F /  1.8 °C 29.9in /  1013.5hPa Calm   1mph /  1.6km/h 61% 0in /  0.0mm 16 W/m2
07:00 48 °F /  8.9 °C 35.6 °F /  2 °C 29.9in /  1013.9hPa West 2mph /  3.2km/h 3mph /  4.8km/h 62% 0in /  0.0mm 19 W/m2
07:05 48.2 °F /  9 °C 35.4 °F /  1.9 °C 29.9in /  1013.9hPa NNW 2.9mph /  4.7km/h 4mph /  6.4km/h 61% 0in /  0.0mm 21 W/m2
07:10 48.6 °F /  9.2 °C 35.8 °F /  2.1 °C 29.9in /  1013.9hPa WNW 2.9mph /  4.7km/h 4mph /  6.4km/h 61% 0in /  0.0mm 21 W/m2
07:15 48.7 °F /  9.3 °C 36 °F /  2.2 °C 29.9in /  1013.9hPa WNW 2mph /  3.2km/h 3mph /  4.8km/h 61% 0in /  0.0mm 25 W/m2
07:20 48.7 °F /  9.3 °C 35.4 °F /  1.9 °C 29.9in /  1013.9hPa West 0.9mph /  1.4km/h 4mph /  6.4km/h 60% 0in /  0.0mm 25 W/m2
07:25 48.7 °F /  9.3 °C 36 °F /  2.2 °C 30in /  1014.2hPa Calm   1mph /  1.6km/h 61% 0in /  0.0mm 26 W/m2
07:30 48.7 °F /  9.3 °C 35.4 °F /  1.9 °C 30in /  1014.2hPa Calm   4mph /  6.4km/h 60% 0in /  0.0mm 28 W/m2
07:35 48.9 °F /  9.4 °C 35.6 °F /  2 °C 30in /  1014.2hPa WNW 0.9mph /  1.4km/h 2mph /  3.2km/h 60% 0in /  0.0mm 30 W/m2
07:40 49.1 °F /  9.5 °C 36.3 °F /  2.4 °C 30in /  1014.2hPa Calm   2mph /  3.2km/h 61% 0in /  0.0mm 35 W/m2
07:45 49.3 °F /  9.6 °C 36 °F /  2.2 °C 30in /  1014.2hPa Calm   1mph /  1.6km/h 60% 0in /  0.0mm 35 W/m2
07:50 49.5 °F /  9.7 °C 36.5 °F /  2.5 °C 30in /  1014.2hPa Calm   1mph /  1.6km/h 61% 0in /  0.0mm 35 W/m2
07:55 49.6 °F /  9.8 °C 36.3 °F /  2.4 °C 30in /  1014.2hPa ENE 2.9mph /  4.7km/h 4mph /  6.4km/h 60% 0in /  0.0mm 165 W/m2
08:00 50.2 °F /  10.1 °C 36.3 °F /  2.4 °C 30in /  1014.2hPa East 2mph /  3.2km/h 2mph /  3.2km/h 59% 0in /  0.0mm 190 W/m2
08:05 50.5 °F /  10.3 °C 36.3 °F /  2.4 °C 30in /  1014.2hPa NE 0.9mph /  1.4km/h 3mph /  4.8km/h 58% 0in /  0.0mm 202 W/m2
08:10 51.3 °F /  10.7 °C 36.5 °F /  2.5 °C 30in /  1014.2hPa SE 0.9mph /  1.4km/h 6mph /  9.7km/h 57% 0in /  0.0mm 218 W/m2
08:15 52 °F /  11.1 °C 36.9 °F /  2.7 °C 30in /  1014.2hPa ENE 0.9mph /  1.4km/h 3mph /  4.8km/h 56% 0in /  0.0mm 230 W/m2
08:20 52.3 °F /  11.3 °C 36.7 °F /  2.6 °C 30in /  1014.2hPa Calm   5mph /  8km/h 55% 0in /  0.0mm 243 W/m2
08:25 52.7 °F /  11.5 °C 36.5 °F /  2.5 °C 30in /  1014.2hPa NW 0.9mph /  1.4km/h 6mph /  9.7km/h 54% 0in /  0.0mm 257 W/m2
08:30 53.1 °F /  11.7 °C 36.9 °F /  2.7 °C 30in /  1014.2hPa East 0.9mph /  1.4km/h 2mph /  3.2km/h 54% 0in /  0.0mm 271 W/m2
08:35 53.6 °F /  12 °C 36.9 °F /  2.7 °C 30in /  1014.2hPa NE 4mph /  6.4km/h 7mph /  11.3km/h 53% 0in /  0.0mm 283 W/m2
08:40 53.8 °F /  12.1 °C 36.5 °F /  2.5 °C 30in /  1014.2hPa SE 2.9mph /  4.7km/h 4mph /  6.4km/h 52% 0in /  0.0mm 299 W/m2
08:45 54 °F /  12.2 °C 37.2 °F /  2.9 °C 30in /  1014.6hPa East 0.9mph /  1.4km/h 3mph /  4.8km/h 53% 0in /  0.0mm 311 W/m2
08:50 54.1 °F /  12.3 °C 36.9 °F /  2.7 °C 30in /  1014.2hPa WNW 0.9mph /  1.4km/h 2mph /  3.2km/h 52% 0in /  0.0mm 323 W/m2
08:55 54.3 °F /  12.4 °C 37 °F /  2.8 °C 30in /  1014.2hPa NE 4.9mph /  7.9km/h 5mph /  8km/h 52% 0in /  0.0mm 336 W/m2
09:00 54.7 °F /  12.6 °C 36.9 °F /  2.7 °C 30in /  1014.2hPa ENE 2mph /  3.2km/h 4mph /  6.4km/h 51% 0in /  0.0mm 352 W/m2
09:05 55 °F /  12.8 °C 37.2 °F /  2.9 °C 30in /  1014.2hPa ESE 2.9mph /  4.7km/h 3mph /  4.8km/h 51% 0in /  0.0mm 364 W/m2
09:10 55.6 °F /  13.1 °C 37.2 °F /  2.9 °C 30in /  1014.2hPa NE 2mph /  3.2km/h 4mph /  6.4km/h 50% 0in /  0.0mm 376 W/m2
09:15 55.9 °F /  13.3 °C 37 °F /  2.8 °C 30in /  1014.2hPa ENE 2.9mph /  4.7km/h 4mph /  6.4km/h 49% 0in /  0.0mm 392 W/m2
09:20 56.5 °F /  13.6 °C 37 °F /  2.8 °C 30in /  1014.2hPa North 0.9mph /  1.4km/h 7mph /  11.3km/h 48% 0in /  0.0mm 401 W/m2
09:25 57 °F /  13.9 °C 37.6 °F /  3.1 °C 30in /  1014.2hPa ESE 4mph /  6.4km/h 5mph /  8km/h 48% 0in /  0.0mm 415 W/m2
09:30 57.4 °F /  14.1 °C 36.7 °F /  2.6 °C 30in /  1014.2hPa NE 2.9mph /  4.7km/h 9mph /  14.5km/h 46% 0in /  0.0mm 429 W/m2
09:35 57.7 °F /  14.3 °C 36.5 °F /  2.5 °C 30in /  1014.2hPa NE 2mph /  3.2km/h 9mph /  14.5km/h 45% 0in /  0.0mm 439 W/m2
09:40 57.9 °F /  14.4 °C 36.1 °F /  2.3 °C 30in /  1014.2hPa ESE 2mph /  3.2km/h 9mph /  14.5km/h 44% 0in /  0.0mm 454 W/m2
09:45 58.6 °F /  14.8 °C 37.4 °F /  3 °C 30in /  1014.2hPa ESE 2.9mph /  4.7km/h 6mph /  9.7km/h 45% 0in /  0.0mm 466 W/m2
09:50 59.2 °F /  15.1 °C 37.2 °F /  2.9 °C 30in /  1014.2hPa East 0.9mph /  1.4km/h 9mph /  14.5km/h 44% 0in /  0.0mm 410 W/m2
09:55 59.7 °F /  15.4 °C 37.2 °F /  2.9 °C 30in /  1014.2hPa South 4mph /  6.4km/h 5mph /  8km/h 43% 0in /  0.0mm 53 W/m2
10:00 59.9 °F /  15.5 °C 37.4 °F /  3 °C 30in /  1014.2hPa ENE 2.9mph /  4.7km/h 3mph /  4.8km/h 43% 0in /  0.0mm 499 W/m2
10:05 60.4 °F /  15.8 °C 37.2 °F /  2.9 °C 30in /  1014.2hPa SE 4.9mph /  7.9km/h 6mph /  9.7km/h 42% 0in /  0.0mm 510 W/m2
10:10 60.4 °F /  15.8 °C 36 °F /  2.2 °C 30in /  1014.2hPa East 8.1mph /  13km/h 10mph /  16.1km/h 40% 0in /  0.0mm 524 W/m2
10:15 60.6 °F /  15.9 °C 36.9 °F /  2.7 °C 30in /  1014.2hPa ESE 4mph /  6.4km/h 7mph /  11.3km/h 41% 0in /  0.0mm 534 W/m2
10:20 61 °F /  16.1 °C 36.5 °F /  2.5 °C 30in /  1014.2hPa East 6mph /  9.7km/h 8mph /  12.9km/h 40% 0in /  0.0mm 543 W/m2
10:25 61 °F /  16.1 °C 37 °F /  2.8 °C 30in /  1014.2hPa ESE 4mph /  6.4km/h 10mph /  16.1km/h 41% 0in /  0.0mm 557 W/m2
10:30 61.3 °F /  16.3 °C 36.9 °F /  2.7 °C 30in /  1014.2hPa NNE 2mph /  3.2km/h 5mph /  8km/h 40% 0in /  0.0mm 564 W/m2
10:35 61.5 °F /  16.4 °C 36.3 °F /  2.4 °C 30in /  1014.2hPa East 4.9mph /  7.9km/h 9mph /  14.5km/h 39% 0in /  0.0mm 578 W/m2
10:40 61.9 °F /  16.6 °C 36.7 °F /  2.6 °C 30in /  1014.2hPa NE 2.9mph /  4.7km/h 14mph /  22.5km/h 39% 0in /  0.0mm 584 W/m2
10:45 61.7 °F /  16.5 °C 36.5 °F /  2.5 °C 30in /  1014.2hPa ENE 10.1mph /  16.3km/h 12mph /  19.3km/h 39% 0in /  0.0mm 596 W/m2
10:50 62.1 °F /  16.7 °C 37.4 °F /  3 °C 30in /  1014.2hPa East 4mph /  6.4km/h 14mph /  22.5km/h 40% 0in /  0.0mm 606 W/m2
10:55 62.4 °F /  16.9 °C 37.2 °F /  2.9 °C 30in /  1014.2hPa East 2mph /  3.2km/h 7mph /  11.3km/h 39% 0in /  0.0mm 615 W/m2
11:00 62.8 °F /  17.1 °C 36.9 °F /  2.7 °C 30in /  1014.2hPa ENE 2.9mph /  4.7km/h 11mph /  17.7km/h 38% 0in /  0.0mm 622 W/m2
11:05 63.3 °F /  17.4 °C 36.7 °F /  2.6 °C 30in /  1014.2hPa ESE 2.9mph /  4.7km/h 8mph /  12.9km/h 37% 0in /  0.0mm 633 W/m2
11:10 63.7 °F /  17.6 °C 36.9 °F /  2.7 °C 30in /  1014.2hPa NE 2mph /  3.2km/h 11mph /  17.7km/h 37% 0in /  0.0mm 643 W/m2
11:15 63.7 °F /  17.6 °C 37.6 °F /  3.1 °C 30in /  1014.2hPa East 2mph /  3.2km/h 7mph /  11.3km/h 38% 0in /  0.0mm 649 W/m2
11:20 63.9 °F /  17.7 °C 39 °F /  3.9 °C 30in /  1014.2hPa SSW 4.9mph /  7.9km/h 9mph /  14.5km/h 40% 0in /  0.0mm 657 W/m2
11:25 63.9 °F /  17.7 °C 37 °F /  2.8 °C 30in /  1014.2hPa ENE 4.9mph /  7.9km/h 11mph /  17.7km/h 37% 0in /  0.0mm 666 W/m2
11:30 63.9 °F /  17.7 °C 37.8 °F /  3.2 °C 30in /  1014.2hPa East 2mph /  3.2km/h 8mph /  12.9km/h 38% 0in /  0.0mm 675 W/m2
11:35 64 °F /  17.8 °C 37.2 °F /  2.9 °C 30in /  1014.2hPa ESE 2.9mph /  4.7km/h 14mph /  22.5km/h 37% 0in /  0.0mm 680 W/m2
11:41 64 °F /  17.8 °C 36.5 °F /  2.5 °C 30in /  1014.2hPa ENE 8.1mph /  13km/h 11mph /  17.7km/h 36% 0in /  0.0mm 687 W/m2
11:46 64.4 °F /  18 °C 36.9 °F /  2.7 °C 30in /  1014.2hPa SE 8.1mph /  13km/h 14mph /  22.5km/h 36% 0in /  0.0mm 698 W/m2
11:51 64.6 °F /  18.1 °C 37 °F /  2.8 °C 30in /  1014.2hPa SSE 2.9mph /  4.7km/h 12mph /  19.3km/h 36% 0in /  0.0mm 701 W/m2
11:56 64.8 °F /  18.2 °C 37.9 °F /  3.3 °C 30in /  1014.2hPa NW 0.9mph /  1.4km/h 8mph /  12.9km/h 37% 0in /  0.0mm 707 W/m2
12:01 65.1 °F /  18.4 °C 38.8 °F /  3.8 °C 29.9in /  1013.9hPa ENE 2mph /  3.2km/h 4mph /  6.4km/h 38% 0in /  0.0mm 714 W/m2
12:06 65.7 °F /  18.7 °C 37.2 °F /  2.9 °C 30in /  1014.2hPa SSE 6mph /  9.7km/h 10mph /  16.1km/h 35% 0in /  0.0mm 722 W/m2
12:11 65.7 °F /  18.7 °C 37.9 °F /  3.3 °C 30in /  1014.2hPa ENE 2.9mph /  4.7km/h 5mph /  8km/h 36% 0in /  0.0mm 729 W/m2
12:16 65.7 °F /  18.7 °C 37.9 °F /  3.3 °C 29.9in /  1013.9hPa NNE 2.9mph /  4.7km/h 10mph /  16.1km/h 36% 0in /  0.0mm 731 W/m2
12:21 66.2 °F /  19 °C 37.8 °F /  3.2 °C 29.9in /  1013.9hPa East 2.9mph /  4.7km/h 8mph /  12.9km/h 35% 0in /  0.0mm 731 W/m2
12:26 66.6 °F /  19.2 °C 37.4 °F /  3 °C 29.9in /  1013.9hPa ENE 2.9mph /  4.7km/h 13mph /  20.9km/h 34% 0in /  0.0mm 740 W/m2
12:31 66.9 °F /  19.4 °C 37.6 °F /  3.1 °C 29.9in /  1013.9hPa East 2mph /  3.2km/h 12mph /  19.3km/h 34% 0in /  0.0mm 745 W/m2
12:36 67.1 °F /  19.5 °C 38.5 °F /  3.6 °C 30in /  1014.2hPa SE 4mph /  6.4km/h 13mph /  20.9km/h 35% 0in /  0.0mm 752 W/m2
12:41 67.3 °F /  19.6 °C 37.9 °F /  3.3 °C 30in /  1014.2hPa East 2.9mph /  4.7km/h 6mph /  9.7km/h 34% 0in /  0.0mm 752 W/m2
12:46 67.1 °F /  19.5 °C 38.5 °F /  3.6 °C 30in /  1014.2hPa ENE 6.9mph /  11.1km/h 9mph /  14.5km/h 35% 0in /  0.0mm 758 W/m2
12:51 67.3 °F /  19.6 °C 38.7 °F /  3.7 °C 29.9in /  1013.9hPa SSE 2mph /  3.2km/h 5mph /  8km/h 35% 0in /  0.0mm 761 W/m2
12:56 67.5 °F /  19.7 °C 37.4 °F /  3 °C 29.9in /  1013.9hPa NNE 2.9mph /  4.7km/h 11mph /  17.7km/h 33% 0in /  0.0mm 761 W/m2
13:01 67.6 °F /  19.8 °C 37.6 °F /  3.1 °C 30in /  1014.2hPa North 8.1mph /  13km/h 11mph /  17.7km/h 33% 0in /  0.0mm 761 W/m2
13:06 67.6 °F /  19.8 °C 37.6 °F /  3.1 °C 30in /  1014.2hPa East 4mph /  6.4km/h 8mph /  12.9km/h 33% 0in /  0.0mm 763 W/m2
13:11 67.6 °F /  19.8 °C 38.3 °F /  3.5 °C 30in /  1014.2hPa ESE 4mph /  6.4km/h 8mph /  12.9km/h 34% 0in /  0.0mm 768 W/m2
13:16 67.8 °F /  19.9 °C 37.6 °F /  3.1 °C 30in /  1014.2hPa NE 2mph /  3.2km/h 9mph /  14.5km/h 33% 0in /  0.0mm 766 W/m2
13:21 68.2 °F /  20.1 °C 37.2 °F /  2.9 °C 30in /  1014.2hPa NE 4mph /  6.4km/h 12mph /  19.3km/h 32% 0in /  0.0mm 766 W/m2
13:26 68.2 °F /  20.1 °C 37.9 °F /  3.3 °C 30in /  1014.2hPa NE 4.9mph /  7.9km/h 5mph /  8km/h 33% 0in /  0.0mm 768 W/m2
13:31 68.5 °F /  20.3 °C 37.6 °F /  3.1 °C 30in /  1014.2hPa ENE 6mph /  9.7km/h 15mph /  24.1km/h 32% 0in /  0.0mm 765 W/m2
13:36 68.4 °F /  20.2 °C 37.4 °F /  3 °C 30in /  1014.2hPa ESE 2.9mph /  4.7km/h 7mph /  11.3km/h 32% 0in /  0.0mm 766 W/m2
13:41 68.7 °F /  20.4 °C 38.5 °F /  3.6 °C 30in /  1014.2hPa East 6.9mph /  11.1km/h 15mph /  24.1km/h 33% 0in /  0.0mm 765 W/m2
13:46 69.3 °F /  20.7 °C 38.1 °F /  3.4 °C 30in /  1014.2hPa ENE 4mph /  6.4km/h 10mph /  16.1km/h 32% 0in /  0.0mm 768 W/m2
13:51 69.4 °F /  20.8 °C 37.4 °F /  3 °C 29.9in /  1013.9hPa East 4mph /  6.4km/h 10mph /  16.1km/h 31% 0in /  0.0mm 765 W/m2
13:56 70 °F /  21.1 °C 37.9 °F /  3.3 °C 30in /  1014.2hPa ENE 2mph /  3.2km/h 6mph /  9.7km/h 31% 0in /  0.0mm 763 W/m2
14:01 70 °F /  21.1 °C 37.9 °F /  3.3 °C 30in /  1014.2hPa NNE 0.9mph /  1.4km/h 9mph /  14.5km/h 31% 0in /  0.0mm 761 W/m2
14:06 70 °F /  21.1 °C 37.9 °F /  3.3 °C 30in /  1014.2hPa ESE 4mph /  6.4km/h 10mph /  16.1km/h 31% 0in /  0.0mm 761 W/m2
14:11 70.2 °F /  21.2 °C 38.1 °F /  3.4 °C 30in /  1014.2hPa NE 4.9mph /  7.9km/h 8mph /  12.9km/h 31% 0in /  0.0mm 752 W/m2
14:16 70.5 °F /  21.4 °C 37.6 °F /  3.1 °C 30in /  1014.2hPa SE 0.9mph /  1.4km/h 10mph /  16.1km/h 30% 0in /  0.0mm 751 W/m2
14:21 70.7 °F /  21.5 °C 37.8 °F /  3.2 °C 30in /  1014.2hPa NE 2.9mph /  4.7km/h 7mph /  11.3km/h 30% 0in /  0.0mm 751 W/m2
14:26 71.1 °F /  21.7 °C 37.2 °F /  2.9 °C 30in /  1014.2hPa North 0.9mph /  1.4km/h 8mph /  12.9km/h 29% 0in /  0.0mm 745 W/m2
14:31 70.9 °F /  21.6 °C 37 °F /  2.8 °C 30in /  1014.2hPa ESE 4mph /  6.4km/h 11mph /  17.7km/h 29% 0in /  0.0mm 740 W/m2
14:36 70.5 °F /  21.4 °C 38.5 °F /  3.6 °C 30in /  1014.2hPa SE 2.9mph /  4.7km/h 5mph /  8km/h 31% 0in /  0.0mm 737 W/m2
14:41 70.9 °F /  21.6 °C 40.3 °F /  4.6 °C 30in /  1014.2hPa North 6mph /  9.7km/h 7mph /  11.3km/h 33% 0in /  0.0mm 735 W/m2
14:46 71.1 °F /  21.7 °C 39.7 °F /  4.3 °C 30in /  1014.2hPa NE 2mph /  3.2km/h 4mph /  6.4km/h 32% 0in /  0.0mm 729 W/m2
14:51 71.2 °F /  21.8 °C 38.3 °F /  3.5 °C 29.9in /  1013.9hPa NE 4mph /  6.4km/h 6mph /  9.7km/h 30% 0in /  0.0mm 722 W/m2
14:56 71.2 °F /  21.8 °C 39 °F /  3.9 °C 30in /  1014.2hPa East 4mph /  6.4km/h 8mph /  12.9km/h 31% 0in /  0.0mm 714 W/m2
15:01 70.9 °F /  21.6 °C 37.9 °F /  3.3 °C 29.9in /  1013.9hPa West 6.9mph /  11.1km/h 11mph /  17.7km/h 30% 0in /  0.0mm 708 W/m2
15:06 70.9 °F /  21.6 °C 38.7 °F /  3.7 °C 30in /  1014.2hPa East 2.9mph /  4.7km/h 7mph /  11.3km/h 31% 0in /  0.0mm 705 W/m2
15:11 71.2 °F /  21.8 °C 39 °F /  3.9 °C 29.9in /  1013.9hPa NNE 2mph /  3.2km/h 8mph /  12.9km/h 31% 0in /  0.0mm 698 W/m2
15:16 71.6 °F /  22 °C 38.5 °F /  3.6 °C 29.9in /  1013.9hPa ENE 6mph /  9.7km/h 8mph /  12.9km/h 30% 0in /  0.0mm 691 W/m2
15:21 71.6 °F /  22 °C 39.4 °F /  4.1 °C 29.9in /  1013.9hPa NW 2mph /  3.2km/h 11mph /  17.7km/h 31% 0in /  0.0mm 680 W/m2
15:26 71.4 °F /  21.9 °C 39.2 °F /  4 °C 29.9in /  1013.9hPa East 2mph /  3.2km/h 12mph /  19.3km/h 31% 0in /  0.0mm 671 W/m2
15:31 71.1 °F /  21.7 °C 38.1 °F /  3.4 °C 29.9in /  1013.9hPa SE 2mph /  3.2km/h 8mph /  12.9km/h 30% 0in /  0.0mm 670 W/m2
15:37 71.4 °F /  21.9 °C 37.6 °F /  3.1 °C 29.9in /  1013.9hPa East 4mph /  6.4km/h 11mph /  17.7km/h 29% 0in /  0.0mm 661 W/m2
15:42 72 °F /  22.2 °C 38.8 °F /  3.8 °C 29.9in /  1013.9hPa South 0.9mph /  1.4km/h 3mph /  4.8km/h 30% 0in /  0.0mm 656 W/m2
15:47 72.3 °F /  22.4 °C 37.4 °F /  3 °C 29.9in /  1013.9hPa ESE 8.9mph /  14.3km/h 9mph /  14.5km/h 28% 0in /  0.0mm 647 W/m2
15:52 72.3 °F /  22.4 °C 37.4 °F /  3 °C 29.9in /  1013.5hPa NE 2.9mph /  4.7km/h 15mph /  24.1km/h 28% 0in /  0.0mm 638 W/m2
15:57 72.3 °F /  22.4 °C 37.4 °F /  3 °C 29.9in /  1013.9hPa East 6mph /  9.7km/h 11mph /  17.7km/h 28% 0in /  0.0mm 629 W/m2
16:02 72.3 °F /  22.4 °C 37.4 °F /  3 °C 29.9in /  1013.5hPa ENE 0.9mph /  1.4km/h 5mph /  8km/h 28% 0in /  0.0mm 621 W/m2
16:07 72.7 °F /  22.6 °C 37.8 °F /  3.2 °C 29.9in /  1013.5hPa East 2mph /  3.2km/h 12mph /  19.3km/h 28% 0in /  0.0mm 610 W/m2
16:13 72.9 °F /  22.7 °C 37.8 °F /  3.2 °C 29.9in /  1013.5hPa West 0.9mph /  1.4km/h 6mph /  9.7km/h 28% 0in /  0.0mm 603 W/m2
16:18 73 °F /  22.8 °C 37 °F /  2.8 °C 29.9in /  1013.5hPa NE 6mph /  9.7km/h 14mph /  22.5km/h 27% 0in /  0.0mm 591 W/m2
16:23 72.9 °F /  22.7 °C 36.9 °F /  2.7 °C 29.9in /  1013.5hPa NE 4mph /  6.4km/h 6mph /  9.7km/h 27% 0in /  0.0mm 584 W/m2
16:28 72.9 °F /  22.7 °C 36.9 °F /  2.7 °C 29.9in /  1013.5hPa ENE 4mph /  6.4km/h 14mph /  22.5km/h 27% 0in /  0.0mm 573 W/m2
16:33 73 °F /  22.8 °C 37 °F /  2.8 °C 29.9in /  1013.5hPa North 4mph /  6.4km/h 5mph /  8km/h 27% 0in /  0.0mm 566 W/m2
16:38 73.2 °F /  22.9 °C 37.2 °F /  2.9 °C 29.9in /  1013.5hPa ENE 4.9mph /  7.9km/h 11mph /  17.7km/h 27% 0in /  0.0mm 557 W/m2
16:43 73 °F /  22.8 °C 37 °F /  2.8 °C 29.9in /  1013.5hPa NNE 10.1mph /  16.3km/h 10mph /  16.1km/h 27% 0in /  0.0mm 547 W/m2
16:48 73 °F /  22.8 °C 37 °F /  2.8 °C 29.9in /  1013.5hPa ESE 2mph /  3.2km/h 11mph /  17.7km/h 27% 0in /  0.0mm 536 W/m2
16:53 73.6 °F /  23.1 °C 37.6 °F /  3.1 °C 29.9in /  1013.5hPa ENE 8.1mph /  13km/h 9mph /  14.5km/h 27% 0in /  0.0mm 527 W/m2
16:58 73.6 °F /  23.1 °C 37.6 °F /  3.1 °C 29.9in /  1013.5hPa ESE 8.1mph /  13km/h 9mph /  14.5km/h 27% 0in /  0.0mm 512 W/m2
17:03 73.2 °F /  22.9 °C 37.2 °F /  2.9 °C 29.9in /  1013.5hPa East 2mph /  3.2km/h 8mph /  12.9km/h 27% 0in /  0.0mm 494 W/m2
17:08 73.2 °F /  22.9 °C 37.2 °F /  2.9 °C 29.9in /  1013.5hPa SE 4mph /  6.4km/h 12mph /  19.3km/h 27% 0in /  0.0mm 489 W/m2
17:13 73.2 °F /  22.9 °C 37.2 °F /  2.9 °C 29.9in /  1013.5hPa East 2.9mph /  4.7km/h 6mph /  9.7km/h 27% 0in /  0.0mm 473 W/m2
17:18 73.4 °F /  23 °C 37.4 °F /  3 °C 29.9in /  1013.5hPa East 2.9mph /  4.7km/h 5mph /  8km/h 27% 0in /  0.0mm 462 W/m2
17:24 73.6 °F /  23.1 °C 37.6 °F /  3.1 °C 29.9in /  1013.5hPa Calm   8mph /  12.9km/h 27% 0in /  0.0mm 448 W/m2
17:29 73.6 °F /  23.1 °C 39.4 °F /  4.1 °C 29.9in /  1013.5hPa ESE 2.9mph /  4.7km/h 6mph /  9.7km/h 29% 0in /  0.0mm 436 W/m2
17:34 73.6 °F /  23.1 °C 37.6 °F /  3.1 °C 29.9in /  1013.5hPa ESE 2.9mph /  4.7km/h 7mph /  11.3km/h 27% 0in /  0.0mm 424 W/m2
17:39 73.4 °F /  23 °C 36.5 °F /  2.5 °C 29.9in /  1013.5hPa East 2mph /  3.2km/h 5mph /  8km/h 26% 0in /  0.0mm 410 W/m2
17:44 73 °F /  22.8 °C 36.1 °F /  2.3 °C 29.9in /  1013.5hPa ESE 2.9mph /  4.7km/h 12mph /  19.3km/h 26% 0in /  0.0mm 399 W/m2
17:49 72.9 °F /  22.7 °C 36.9 °F /  2.7 °C 29.9in /  1013.5hPa ENE 10.1mph /  16.3km/h 11mph /  17.7km/h 27% 0in /  0.0mm 383 W/m2
17:54 72.7 °F /  22.6 °C 36.9 °F /  2.7 °C 29.9in /  1013.5hPa ENE 6mph /  9.7km/h 14mph /  22.5km/h 27% 0in /  0.0mm 371 W/m2
17:59 72.7 °F /  22.6 °C 36.9 °F /  2.7 °C 29.9in /  1013.9hPa ESE 4mph /  6.4km/h 8mph /  12.9km/h 27% 0in /  0.0mm 359 W/m2
18:04 72.5 °F /  22.5 °C 36.7 °F /  2.6 °C 29.9in /  1013.9hPa SW 0.9mph /  1.4km/h 11mph /  17.7km/h 27% 0in /  0.0mm 348 W/m2
18:09 73 °F /  22.8 °C 36.1 °F /  2.3 °C 29.9in /  1013.9hPa SE 4mph /  6.4km/h 11mph /  17.7km/h 26% 0in /  0.0mm 336 W/m2
18:14 73 °F /  22.8 °C 37 °F /  2.8 °C 29.9in /  1013.9hPa ENE 2.9mph /  4.7km/h 9mph /  14.5km/h 27% 0in /  0.0mm 320 W/m2
18:19 72.7 °F /  22.6 °C 37.8 °F /  3.2 °C 29.9in /  1013.9hPa ESE 4mph /  6.4km/h 11mph /  17.7km/h 28% 0in /  0.0mm 306 W/m2
18:24 72.7 °F /  22.6 °C 36.9 °F /  2.7 °C 29.9in /  1013.9hPa NE 4.9mph /  7.9km/h 8mph /  12.9km/h 27% 0in /  0.0mm 292 W/m2
18:29 72.3 °F /  22.4 °C 36.5 °F /  2.5 °C 29.9in /  1013.9hPa NNE 2.9mph /  4.7km/h 7mph /  11.3km/h 27% 0in /  0.0mm 279 W/m2
18:34 72.3 °F /  22.4 °C 36.5 °F /  2.5 °C 29.9in /  1013.9hPa East 4mph /  6.4km/h 8mph /  12.9km/h 27% 0in /  0.0mm 265 W/m2
18:39 72.3 °F /  22.4 °C 35.6 °F /  2 °C 29.9in /  1013.9hPa East 8.1mph /  13km/h 8mph /  12.9km/h 26% 0in /  0.0mm 250 W/m2
18:44 72.3 °F /  22.4 °C 37.4 °F /  3 °C 29.9in /  1013.9hPa ENE 2mph /  3.2km/h 5mph /  8km/h 28% 0in /  0.0mm 236 W/m2
18:49 72.1 °F /  22.3 °C 36.3 °F /  2.4 °C 29.9in /  1013.9hPa ESE 8.1mph /  13km/h 11mph /  17.7km/h 27% 0in /  0.0mm 223 W/m2
18:54 72 °F /  22.2 °C 37 °F /  2.8 °C 29.9in /  1013.9hPa SE 0.9mph /  1.4km/h 7mph /  11.3km/h 28% 0in /  0.0mm 209 W/m2
18:59 72 °F /  22.2 °C 36.1 °F /  2.3 °C 29.9in /  1013.9hPa ESE 4.9mph /  7.9km/h 9mph /  14.5km/h 27% 0in /  0.0mm 195 W/m2
19:04 72.1 °F /  22.3 °C 37.2 °F /  2.9 °C 29.9in /  1013.9hPa ESE 2mph /  3.2km/h 4mph /  6.4km/h 28% 0in /  0.0mm 178 W/m2
19:09 72.1 °F /  22.3 °C 38.1 °F /  3.4 °C 29.9in /  1013.9hPa ESE 2.9mph /  4.7km/h 3mph /  4.8km/h 29% 0in /  0.0mm 162 W/m2
19:14 71.8 °F /  22.1 °C 37.8 °F /  3.2 °C 30in /  1014.2hPa SE 2mph /  3.2km/h 4mph /  6.4km/h 29% 0in /  0.0mm 146 W/m2
19:19 71.4 °F /  21.9 °C 36.7 °F /  2.6 °C 30in /  1014.2hPa East 0.9mph /  1.4km/h 9mph /  14.5km/h 28% 0in /  0.0mm 132 W/m2
19:24 71.2 °F /  21.8 °C 37.4 °F /  3 °C 30in /  1014.2hPa ENE 4.9mph /  7.9km/h 7mph /  11.3km/h 29% 0in /  0.0mm 120 W/m2
19:29 70.9 °F /  21.6 °C 37 °F /  2.8 °C 30in /  1014.2hPa ESE 6.9mph /  11.1km/h 7mph /  11.3km/h 29% 0in /  0.0mm 102 W/m2
19:34 70.5 °F /  21.4 °C 36.7 °F /  2.6 °C 30in /  1014.2hPa ESE 2mph /  3.2km/h 5mph /  8km/h 29% 0in /  0.0mm 90 W/m2
19:40 70.3 °F /  21.3 °C 36.5 °F /  2.5 °C 30in /  1014.2hPa SE 0.9mph /  1.4km/h 4mph /  6.4km/h 29% 0in /  0.0mm 76 W/m2
19:45 70.2 °F /  21.2 °C 36.5 °F /  2.5 °C 30in /  1014.2hPa ENE 2.9mph /  4.7km/h 6mph /  9.7km/h 29% 0in /  0.0mm 65 W/m2
19:50 70.2 °F /  21.2 °C 37.2 °F /  2.9 °C 30in /  1014.6hPa East 2mph /  3.2km/h 4mph /  6.4km/h 30% 0in /  0.0mm 54 W/m2
19:55 70 °F /  21.1 °C 36.3 °F /  2.4 °C 30in /  1014.6hPa ENE 2mph /  3.2km/h 5mph /  8km/h 29% 0in /  0.0mm 46 W/m2
20:00 69.6 °F /  20.9 °C 36 °F /  2.2 °C 30in /  1014.6hPa ESE 2mph /  3.2km/h 6mph /  9.7km/h 29% 0in /  0.0mm 25 W/m2
20:05 69.3 °F /  20.7 °C 36.5 °F /  2.5 °C 30in /  1014.6hPa ESE 8.1mph /  13km/h 8mph /  12.9km/h 30% 0in /  0.0mm 21 W/m2
20:10 69.1 °F /  20.6 °C 36.3 °F /  2.4 °C 30in /  1014.6hPa Calm   3mph /  4.8km/h 30% 0in /  0.0mm 19 W/m2
20:15 68.5 °F /  20.3 °C 36.7 °F /  2.6 °C 30in /  1014.6hPa East 2mph /  3.2km/h 3mph /  4.8km/h 31% 0in /  0.0mm 16 W/m2
20:20 67.8 °F /  19.9 °C 36.9 °F /  2.7 °C 30in /  1014.6hPa ENE 2mph /  3.2km/h 2mph /  3.2km/h 32% 0in /  0.0mm 14 W/m2
20:25 67.3 °F /  19.6 °C 37.2 °F /  2.9 °C 30in /  1014.6hPa ESE 2mph /  3.2km/h 3mph /  4.8km/h 33% 0in /  0.0mm 12 W/m2
20:30 66.7 °F /  19.3 °C 39 °F /  3.9 °C 30in /  1014.9hPa Calm   3mph /  4.8km/h 36% 0in /  0.0mm 9 W/m2
20:35 66.2 °F /  19 °C 37 °F /  2.8 °C 30in /  1014.9hPa NNE 0.9mph /  1.4km/h 3mph /  4.8km/h 34% 0in /  0.0mm 7 W/m2
20:40 66 °F /  18.9 °C 36.9 °F /  2.7 °C 30in /  1014.9hPa ENE 2mph /  3.2km/h 3mph /  4.8km/h 34% 0in /  0.0mm 5 W/m2
20:45 65.7 °F /  18.7 °C 37.2 °F /  2.9 °C 30in /  1014.9hPa ENE 0.9mph /  1.4km/h 2mph /  3.2km/h 35% 0in /  0.0mm 0 W/m2
20:50 65.5 °F /  18.6 °C 37 °F /  2.8 °C 30in /  1014.9hPa Calm   4mph /  6.4km/h 35% 0in /  0.0mm 0 W/m2
20:55 65.1 °F /  18.4 °C 38.1 °F /  3.4 °C 30in /  1014.9hPa Calm   1mph /  1.6km/h 37% 0in /  0.0mm 0 W/m2
21:00 64.8 °F /  18.2 °C 37.9 °F /  3.3 °C 30in /  1015.2hPa East 0.9mph /  1.4km/h 2mph /  3.2km/h 37% 0in /  0.0mm 0 W/m2
21:05 64 °F /  17.8 °C 37.9 °F /  3.3 °C 30in /  1015.2hPa Calm   1mph /  1.6km/h 38% 0in /  0.0mm 0 W/m2
21:10 63.7 °F /  17.6 °C 37.6 °F /  3.1 °C 30in /  1015.2hPa SE 0.9mph /  1.4km/h 2mph /  3.2km/h 38% 0in /  0.0mm 0 W/m2
21:15 63.1 °F /  17.3 °C 38.5 °F /  3.6 °C 30in /  1015.2hPa SE 0.9mph /  1.4km/h 2mph /  3.2km/h 40% 0in /  0.0mm 0 W/m2
21:20 62.4 °F /  16.9 °C 37.8 °F /  3.2 °C 30in /  1015.2hPa SE 2mph /  3.2km/h 2mph /  3.2km/h 40% 0in /  0.0mm 0 W/m2
21:25 62.1 °F /  16.7 °C 38.1 °F /  3.4 °C 30in /  1015.2hPa SE 0.9mph /  1.4km/h 2mph /  3.2km/h 41% 0in /  0.0mm 0 W/m2
21:30 61.3 °F /  16.3 °C 38.7 °F /  3.7 °C 30in /  1015.2hPa Calm   2mph /  3.2km/h 43% 0in /  0.0mm 0 W/m2
21:36 60.6 °F /  15.9 °C 38.7 °F /  3.7 °C 30in /  1015.2hPa SW 0.9mph /  1.4km/h 2mph /  3.2km/h 44% 0in /  0.0mm 0 W/m2
21:41 60.3 °F /  15.7 °C 38.8 °F /  3.8 °C 30in /  1015.2hPa SW 0.9mph /  1.4km/h 2mph /  3.2km/h 45% 0in /  0.0mm 0 W/m2
21:46 59.7 °F /  15.4 °C 38.8 °F /  3.8 °C 30in /  1015.2hPa Calm   1mph /  1.6km/h 46% 0in /  0.0mm 0 W/m2
21:51 59.2 °F /  15.1 °C 38.5 °F /  3.6 °C 30in /  1015.6hPa Calm   1mph /  1.6km/h 46% 0in /  0.0mm 0 W/m2
21:56 58.8 °F /  14.9 °C 39.2 °F /  4 °C 30in /  1015.6hPa SW 0.9mph /  1.4km/h 2mph /  3.2km/h 48% 0in /  0.0mm 0 W/m2
22:01 58.5 °F /  14.7 °C 38.8 °F /  3.8 °C 30in /  1015.6hPa SW 0.9mph /  1.4km/h 2mph /  3.2km/h 48% 0in /  0.0mm 0 W/m2
22:06 57.9 °F /  14.4 °C 38.8 °F /  3.8 °C 30in /  1015.6hPa Calm   2mph /  3.2km/h 49% 0in /  0.0mm 0 W/m2
22:11 57.7 °F /  14.3 °C 38.7 °F /  3.7 °C 30in /  1015.6hPa Calm     49% 0in /  0.0mm 0 W/m2
22:16 57.6 °F /  14.2 °C 39 °F /  3.9 °C 30in /  1015.6hPa SW 0.9mph /  1.4km/h 2mph /  3.2km/h 50% 0in /  0.0mm 0 W/m2
22:21 57.4 °F /  14.1 °C 38.8 °F /  3.8 °C 30in /  1015.6hPa Calm   1mph /  1.6km/h 50% 0in /  0.0mm 0 W/m2
22:26 57 °F /  13.9 °C 39 °F /  3.9 °C 30in /  1015.6hPa SW 0.9mph /  1.4km/h 2mph /  3.2km/h 51% 0in /  0.0mm 0 W/m2
22:31 56.8 °F /  13.8 °C 38.8 °F /  3.8 °C 30in /  1015.6hPa Calm     51% 0in /  0.0mm 0 W/m2
22:36 56.5 °F /  13.6 °C 38.7 °F /  3.7 °C 30in /  1015.9hPa Calm   2mph /  3.2km/h 51% 0in /  0.0mm 0 W/m2
22:41 56.1 °F /  13.4 °C 38.7 °F /  3.7 °C 30in /  1015.9hPa SSW 2mph /  3.2km/h 2mph /  3.2km/h 52% 0in /  0.0mm 0 W/m2
22:46 56.1 °F /  13.4 °C 38.7 °F /  3.7 °C 30in /  1015.9hPa SSW 0.9mph /  1.4km/h 1mph /  1.6km/h 52% 0in /  0.0mm 0 W/m2
22:51 56.1 °F /  13.4 °C 38.7 °F /  3.7 °C 30in /  1015.9hPa SSW 0.9mph /  1.4km/h 2mph /  3.2km/h 52% 0in /  0.0mm 0 W/m2
22:56 55.9 °F /  13.3 °C 38.5 °F /  3.6 °C 30in /  1015.9hPa SSW 0.9mph /  1.4km/h 1mph /  1.6km/h 52% 0in /  0.0mm 0 W/m2
23:01 55.9 °F /  13.3 °C 38.5 °F /  3.6 °C 30in /  1015.9hPa Calm     52% 0in /  0.0mm 0 W/m2
23:06 55.8 °F /  13.2 °C 38.8 °F /  3.8 °C 30in /  1015.9hPa Calm     53% 0in /  0.0mm 0 W/m2
23:11 55.4 °F /  13 °C 38.5 °F /  3.6 °C 30in /  1015.9hPa Calm     53% 0in /  0.0mm 0 W/m2
23:16 55 °F /  12.8 °C 38.3 °F /  3.5 °C 30in /  1015.9hPa Calm   1mph /  1.6km/h 53% 0in /  0.0mm 0 W/m2
23:21 55 °F /  12.8 °C 38.3 °F /  3.5 °C 30in /  1016.3hPa Calm   3mph /  4.8km/h 53% 0in /  0.0mm 0 W/m2
23:26 54.9 °F /  12.7 °C 38.5 °F /  3.6 °C 30in /  1016.3hPa SSW 0.9mph /  1.4km/h 4mph /  6.4km/h 54% 0in /  0.0mm 0 W/m2
23:31 54.9 °F /  12.7 °C 38.5 °F /  3.6 °C 30in /  1016.3hPa SSW 0.9mph /  1.4km/h 2mph /  3.2km/h 54% 0in /  0.0mm 0 W/m2
23:36 54.9 °F /  12.7 °C 38.5 °F /  3.6 °C 30in /  1016.3hPa SSW 0.9mph /  1.4km/h 4mph /  6.4km/h 54% 0in /  0.0mm 0 W/m2
23:41 54.7 °F /  12.6 °C 38.3 °F /  3.5 °C 30in /  1016.3hPa SSW 0.9mph /  1.4km/h 2mph /  3.2km/h 54% 0in /  0.0mm 0 W/m2
23:46 54.7 °F /  12.6 °C 37.4 °F /  3 °C 30in /  1016.3hPa Calm   1mph /  1.6km/h 52% 0in /  0.0mm 0 W/m2
23:51 54.7 °F /  12.6 °C 37.9 °F /  3.3 °C 30in /  1016.3hPa WNW 0.9mph /  1.4km/h 2mph /  3.2km/h 53% 0in /  0.0mm 0 W/m2
23:56 54.7 °F /  12.6 °C 37.4 °F /  3 °C 30in /  1016.3hPa WNW 0.9mph /  1.4km/h 2mph /  3.2km/h 52% 0in /  0.0mm 0 W/m2
Juneau County Weather
Compliments of Weather Underground - 2 mb